sensor_id;sensor_type;location;lat;lon;timestamp;pressure;altitude;pressure_sealevel;temperature;humidity
19108;BME280;9686;48.832;9.126;2023-01-08T00:01:39;97601.13;;;11.47;nan
19108;BME280;9686;48.832;9.126;2023-01-08T00:04:04;97598.66;;;11.37;nan
19108;BME280;9686;48.832;9.126;2023-01-08T00:06:29;97588.56;;;11.21;nan
19108;BME280;9686;48.832;9.126;2023-01-08T00:08:55;97570.81;;;11.38;nan
19108;BME280;9686;48.832;9.126;2023-01-08T00:11:20;97570.53;;;11.53;nan
19108;BME280;9686;48.832;9.126;2023-01-08T00:13:45;97568.06;;;11.47;nan
19108;BME280;9686;48.832;9.126;2023-01-08T00:16:13;97568.75;;;11.55;nan
19108;BME280;9686;48.832;9.126;2023-01-08T00:18:39;97566.19;;;11.54;nan
19108;BME280;9686;48.832;9.126;2023-01-08T00:21:05;97575.75;;;11.53;nan
19108;BME280;9686;48.832;9.126;2023-01-08T00:23:31;97568.25;;;11.36;nan
19108;BME280;9686;48.832;9.126;2023-01-08T00:26:00;97565.72;;;11.32;nan
19108;BME280;9686;48.832;9.126;2023-01-08T00:28:25;97570.94;;;11.32;nan
19108;BME280;9686;48.832;9.126;2023-01-08T00:30:50;97568.41;;;11.29;nan
19108;BME280;9686;48.832;9.126;2023-01-08T00:33:15;97565.06;;;11.22;nan
19108;BME280;9686;48.832;9.126;2023-01-08T00:35:41;97567.00;;;11.11;nan
19108;BME280;9686;48.832;9.126;2023-01-08T00:38:06;97557.75;;;10.95;nan
19108;BME280;9686;48.832;9.126;2023-01-08T00:40:32;97555.19;;;10.90;nan
19108;BME280;9686;48.832;9.126;2023-01-08T00:42:58;97539.03;;;11.19;nan
19108;BME280;9686;48.832;9.126;2023-01-08T00:45:24;97538.63;;;10.94;nan
19108;BME280;9686;48.832;9.126;2023-01-08T00:47:49;97532.09;;;10.72;nan
19108;BME280;9686;48.832;9.126;2023-01-08T00:50:15;97524.88;;;10.85;nan
19108;BME280;9686;48.832;9.126;2023-01-08T00:52:40;97530.50;;;10.62;nan
19108;BME280;9686;48.832;9.126;2023-01-08T00:55:06;97532.31;;;10.58;nan
19108;BME280;9686;48.832;9.126;2023-01-08T00:57:35;97526.97;;;10.67;nan
19108;BME280;9686;48.832;9.126;2023-01-08T01:00:03;97524.50;;;10.57;nan
19108;BME280;9686;48.832;9.126;2023-01-08T01:02:28;97526.94;;;10.66;nan
19108;BME280;9686;48.832;9.126;2023-01-08T01:04:54;97534.50;;;10.82;nan
19108;BME280;9686;48.832;9.126;2023-01-08T01:07:19;97514.13;;;11.03;nan
19108;BME280;9686;48.832;9.126;2023-01-08T01:09:45;97517.06;;;10.85;nan
19108;BME280;9686;48.832;9.126;2023-01-08T01:12:10;97509.75;;;10.57;nan
19108;BME280;9686;48.832;9.126;2023-01-08T01:14:38;97515.25;;;10.39;nan
19108;BME280;9686;48.832;9.126;2023-01-08T01:17:04;97514.00;;;10.61;nan
19108;BME280;9686;48.832;9.126;2023-01-08T01:19:29;97517.41;;;10.65;nan
19108;BME280;9686;48.832;9.126;2023-01-08T01:21:54;97510.63;;;10.56;nan
19108;BME280;9686;48.832;9.126;2023-01-08T01:24:20;97520.81;;;10.70;nan
19108;BME280;9686;48.832;9.126;2023-01-08T01:26:48;97524.06;;;10.82;nan
19108;BME280;9686;48.832;9.126;2023-01-08T01:29:13;97524.03;;;10.84;nan
19108;BME280;9686;48.832;9.126;2023-01-08T01:31:38;97499.63;;;10.88;nan
19108;BME280;9686;48.832;9.126;2023-01-08T01:34:04;97499.97;;;10.70;nan
19108;BME280;9686;48.832;9.126;2023-01-08T01:36:29;97504.34;;;10.68;nan
19108;BME280;9686;48.832;9.126;2023-01-08T01:38:55;97505.69;;;10.89;nan
19108;BME280;9686;48.832;9.126;2023-01-08T01:41:42;97521.00;;;11.07;nan
19108;BME280;9686;48.832;9.126;2023-01-08T01:47:28;97533.03;;;10.68;nan
19108;BME280;9686;48.832;9.126;2023-01-08T01:50:08;97538.31;;;10.62;nan
19108;BME280;9686;48.832;9.126;2023-01-08T01:52:44;97529.69;;;10.58;nan
19108;BME280;9686;48.832;9.126;2023-01-08T01:55:11;97531.38;;;10.62;nan
19108;BME280;9686;48.832;9.126;2023-01-08T01:57:38;97522.00;;;11.00;nan
19108;BME280;9686;48.832;9.126;2023-01-08T02:00:05;97514.44;;;10.86;nan
19108;BME280;9686;48.832;9.126;2023-01-08T02:02:31;97512.69;;;10.87;nan
19108;BME280;9686;48.832;9.126;2023-01-08T02:04:59;97511.22;;;10.72;nan
19108;BME280;9686;48.832;9.126;2023-01-08T02:07:55;97503.00;;;10.95;nan
19108;BME280;9686;48.832;9.126;2023-01-08T02:10:27;97507.13;;;11.05;nan
19108;BME280;9686;48.832;9.126;2023-01-08T02:13:00;97496.53;;;11.12;nan
19108;BME280;9686;48.832;9.126;2023-01-08T02:18:19;97494.16;;;11.45;nan
19108;BME280;9686;48.832;9.126;2023-01-08T02:20:49;97499.53;;;11.36;nan
19108;BME280;9686;48.832;9.126;2023-01-08T02:23:48;97494.13;;;11.47;nan
19108;BME280;9686;48.832;9.126;2023-01-08T02:26:30;97481.06;;;11.47;nan
19108;BME280;9686;48.832;9.126;2023-01-08T02:29:12;97484.44;;;11.52;nan
19108;BME280;9686;48.832;9.126;2023-01-08T02:31:40;97479.69;;;11.29;nan
19108;BME280;9686;48.832;9.126;2023-01-08T02:34:08;97459.88;;;11.60;nan
19108;BME280;9686;48.832;9.126;2023-01-08T02:36:37;97468.13;;;11.40;nan
19108;BME280;9686;48.832;9.126;2023-01-08T02:39:14;97465.94;;;11.61;nan
19108;BME280;9686;48.832;9.126;2023-01-08T02:41:52;97465.78;;;11.68;nan
19108;BME280;9686;48.832;9.126;2023-01-08T02:46:56;97455.75;;;11.50;nan
19108;BME280;9686;48.832;9.126;2023-01-08T02:49:24;97438.91;;;11.63;nan
19108;BME280;9686;48.832;9.126;2023-01-08T02:51:53;97436.50;;;11.56;nan
19108;BME280;9686;48.832;9.126;2023-01-08T02:54:23;97432.94;;;11.58;nan
19108;BME280;9686;48.832;9.126;2023-01-08T02:57:03;97425.28;;;11.52;nan
19108;BME280;9686;48.832;9.126;2023-01-08T02:59:30;97425.84;;;11.65;nan
19108;BME280;9686;48.832;9.126;2023-01-08T03:01:57;97426.91;;;11.56;nan
19108;BME280;9686;48.832;9.126;2023-01-08T03:04:24;97421.81;;;11.52;nan
19108;BME280;9686;48.832;9.126;2023-01-08T03:06:50;97424.19;;;11.61;nan
19108;BME280;9686;48.832;9.126;2023-01-08T03:09:16;97425.88;;;11.63;nan
19108;BME280;9686;48.832;9.126;2023-01-08T03:12:09;97423.16;;;11.68;nan
19108;BME280;9686;48.832;9.126;2023-01-08T03:14:55;97411.34;;;11.90;nan
19108;BME280;9686;48.832;9.126;2023-01-08T03:17:26;97416.44;;;11.95;nan
19108;BME280;9686;48.832;9.126;2023-01-08T03:19:58;97410.63;;;11.84;nan
19108;BME280;9686;48.832;9.126;2023-01-08T03:22:26;97398.81;;;12.04;nan
19108;BME280;9686;48.832;9.126;2023-01-08T03:24:53;97408.03;;;12.18;nan
19108;BME280;9686;48.832;9.126;2023-01-08T03:27:23;97404.13;;;12.01;nan
19108;BME280;9686;48.832;9.126;2023-01-08T03:29:50;97402.09;;;12.13;nan
19108;BME280;9686;48.832;9.126;2023-01-08T03:32:17;97402.19;;;12.08;nan
19108;BME280;9686;48.832;9.126;2023-01-08T03:34:47;97385.69;;;12.08;nan
19108;BME280;9686;48.832;9.126;2023-01-08T03:37:14;97394.69;;;11.94;nan
19108;BME280;9686;48.832;9.126;2023-01-08T03:39:45;97386.03;;;11.92;nan
19108;BME280;9686;48.832;9.126;2023-01-08T03:42:14;97379.91;;;11.93;nan
19108;BME280;9686;48.832;9.126;2023-01-08T03:44:41;97381.38;;;12.05;nan
19108;BME280;9686;48.832;9.126;2023-01-08T03:47:07;97377.72;;;12.12;nan
19108;BME280;9686;48.832;9.126;2023-01-08T03:49:34;97372.19;;;12.24;nan
19108;BME280;9686;48.832;9.126;2023-01-08T03:52:01;97381.59;;;11.96;nan
19108;BME280;9686;48.832;9.126;2023-01-08T03:54:31;97378.13;;;11.95;nan
19108;BME280;9686;48.832;9.126;2023-01-08T03:56:58;97381.03;;;12.19;nan
19108;BME280;9686;48.832;9.126;2023-01-08T03:59:23;97382.84;;;12.15;nan
19108;BME280;9686;48.832;9.126;2023-01-08T04:01:48;97369.59;;;12.23;nan
19108;BME280;9686;48.832;9.126;2023-01-08T04:04:14;97369.19;;;12.06;nan
19108;BME280;9686;48.832;9.126;2023-01-08T04:06:39;97365.72;;;12.05;nan
19108;BME280;9686;48.832;9.126;2023-01-08T04:09:05;97364.84;;;12.04;nan
19108;BME280;9686;48.832;9.126;2023-01-08T04:11:31;97365.25;;;12.23;nan
19108;BME280;9686;48.832;9.126;2023-01-08T04:13:56;97362.50;;;12.28;nan
19108;BME280;9686;48.832;9.126;2023-01-08T04:16:22;97353.44;;;12.41;nan
19108;BME280;9686;48.832;9.126;2023-01-08T04:18:47;97359.72;;;12.34;nan
19108;BME280;9686;48.832;9.126;2023-01-08T04:21:12;97353.69;;;12.32;nan
19108;BME280;9686;48.832;9.126;2023-01-08T04:23:38;97340.66;;;12.61;nan
19108;BME280;9686;48.832;9.126;2023-01-08T04:26:05;97354.50;;;12.65;nan
19108;BME280;9686;48.832;9.126;2023-01-08T04:28:30;97358.59;;;12.43;nan
19108;BME280;9686;48.832;9.126;2023-01-08T04:30:55;97366.78;;;12.30;nan
19108;BME280;9686;48.832;9.126;2023-01-08T04:33:20;97358.22;;;12.25;nan
19108;BME280;9686;48.832;9.126;2023-01-08T04:35:46;97359.19;;;12.21;nan
19108;BME280;9686;48.832;9.126;2023-01-08T04:38:11;97368.50;;;12.31;nan
19108;BME280;9686;48.832;9.126;2023-01-08T04:40:36;97371.13;;;12.31;nan
19108;BME280;9686;48.832;9.126;2023-01-08T04:43:02;97359.94;;;12.26;nan
19108;BME280;9686;48.832;9.126;2023-01-08T04:45:27;97373.94;;;12.24;nan
19108;BME280;9686;48.832;9.126;2023-01-08T04:47:56;97370.47;;;12.22;nan
19108;BME280;9686;48.832;9.126;2023-01-08T04:50:22;97364.47;;;12.52;nan
19108;BME280;9686;48.832;9.126;2023-01-08T04:52:47;97371.69;;;12.74;nan
19108;BME280;9686;48.832;9.126;2023-01-08T04:55:13;97376.97;;;13.03;nan
19108;BME280;9686;48.832;9.126;2023-01-08T04:57:38;97368.38;;;13.29;nan
19108;BME280;9686;48.832;9.126;2023-01-08T05:00:04;97364.59;;;13.38;nan
19108;BME280;9686;48.832;9.126;2023-01-08T05:02:29;97369.84;;;13.38;nan
19108;BME280;9686;48.832;9.126;2023-01-08T05:04:55;97374.88;;;13.44;nan
19108;BME280;9686;48.832;9.126;2023-01-08T05:07:20;97372.50;;;13.36;nan
19108;BME280;9686;48.832;9.126;2023-01-08T05:09:45;97390.63;;;13.42;nan
19108;BME280;9686;48.832;9.126;2023-01-08T05:12:11;97378.59;;;13.65;nan
19108;BME280;9686;48.832;9.126;2023-01-08T05:14:36;97382.56;;;13.76;nan
19108;BME280;9686;48.832;9.126;2023-01-08T05:17:01;97379.13;;;13.48;nan
19108;BME280;9686;48.832;9.126;2023-01-08T05:19:26;97393.66;;;13.58;nan
19108;BME280;9686;48.832;9.126;2023-01-08T05:21:52;97392.75;;;13.59;nan
19108;BME280;9686;48.832;9.126;2023-01-08T05:24:17;97391.50;;;13.43;nan
19108;BME280;9686;48.832;9.126;2023-01-08T05:26:42;97384.78;;;13.34;nan
19108;BME280;9686;48.832;9.126;2023-01-08T05:29:08;97396.28;;;13.58;nan
19108;BME280;9686;48.832;9.126;2023-01-08T05:31:34;97382.28;;;13.59;nan
19108;BME280;9686;48.832;9.126;2023-01-08T05:33:59;97380.78;;;13.50;nan
19108;BME280;9686;48.832;9.126;2023-01-08T05:36:25;97384.00;;;13.60;nan
19108;BME280;9686;48.832;9.126;2023-01-08T05:38:50;97377.78;;;13.35;nan
19108;BME280;9686;48.832;9.126;2023-01-08T05:41:15;97371.75;;;13.33;nan
19108;BME280;9686;48.832;9.126;2023-01-08T05:43:41;97372.03;;;13.51;nan
19108;BME280;9686;48.832;9.126;2023-01-08T05:46:06;97382.22;;;13.33;nan
19108;BME280;9686;48.832;9.126;2023-01-08T05:48:34;97372.91;;;13.22;nan
19108;BME280;9686;48.832;9.126;2023-01-08T05:51:00;97371.66;;;13.36;nan
19108;BME280;9686;48.832;9.126;2023-01-08T05:53:26;97377.59;;;13.11;nan
19108;BME280;9686;48.832;9.126;2023-01-08T05:55:51;97379.38;;;13.40;nan
19108;BME280;9686;48.832;9.126;2023-01-08T05:58:16;97386.06;;;13.49;nan
19108;BME280;9686;48.832;9.126;2023-01-08T06:00:43;97373.41;;;13.35;nan
19108;BME280;9686;48.832;9.126;2023-01-08T06:03:09;97374.53;;;13.26;nan
19108;BME280;9686;48.832;9.126;2023-01-08T06:05:34;97381.47;;;13.29;nan
19108;BME280;9686;48.832;9.126;2023-01-08T06:07:59;97382.25;;;13.00;nan
19108;BME280;9686;48.832;9.126;2023-01-08T06:10:25;97371.50;;;13.40;nan
19108;BME280;9686;48.832;9.126;2023-01-08T06:12:50;97387.00;;;13.17;nan
19108;BME280;9686;48.832;9.126;2023-01-08T06:15:16;97373.66;;;13.27;nan
19108;BME280;9686;48.832;9.126;2023-01-08T06:17:41;97366.75;;;12.94;nan
19108;BME280;9686;48.832;9.126;2023-01-08T06:20:07;97364.81;;;13.01;nan
19108;BME280;9686;48.832;9.126;2023-01-08T06:22:33;97360.47;;;13.31;nan
19108;BME280;9686;48.832;9.126;2023-01-08T06:24:58;97360.94;;;12.84;nan
19108;BME280;9686;48.832;9.126;2023-01-08T06:27:24;97355.53;;;13.20;nan
19108;BME280;9686;48.832;9.126;2023-01-08T06:29:49;97352.28;;;13.41;nan
19108;BME280;9686;48.832;9.126;2023-01-08T06:32:14;97358.38;;;13.42;nan
19108;BME280;9686;48.832;9.126;2023-01-08T06:34:39;97347.34;;;13.32;nan
19108;BME280;9686;48.832;9.126;2023-01-08T06:37:05;97349.00;;;13.63;nan
19108;BME280;9686;48.832;9.126;2023-01-08T06:39:30;97334.47;;;13.79;nan
19108;BME280;9686;48.832;9.126;2023-01-08T06:41:55;97330.66;;;13.89;nan
19108;BME280;9686;48.832;9.126;2023-01-08T06:44:20;97332.09;;;13.98;nan
19108;BME280;9686;48.832;9.126;2023-01-08T06:46:47;97332.63;;;13.82;nan
19108;BME280;9686;48.832;9.126;2023-01-08T06:49:12;97325.78;;;14.03;nan
19108;BME280;9686;48.832;9.126;2023-01-08T06:51:38;97336.38;;;14.00;nan
19108;BME280;9686;48.832;9.126;2023-01-08T06:54:04;97336.22;;;13.78;nan
19108;BME280;9686;48.832;9.126;2023-01-08T06:56:29;97332.91;;;14.00;nan
19108;BME280;9686;48.832;9.126;2023-01-08T06:58:54;97339.22;;;13.94;nan
19108;BME280;9686;48.832;9.126;2023-01-08T07:01:20;97337.41;;;14.21;nan
19108;BME280;9686;48.832;9.126;2023-01-08T07:03:47;97336.44;;;13.99;nan
19108;BME280;9686;48.832;9.126;2023-01-08T07:06:18;97342.22;;;13.83;nan
19108;BME280;9686;48.832;9.126;2023-01-08T07:08:44;97344.03;;;13.81;nan
19108;BME280;9686;48.832;9.126;2023-01-08T07:11:09;97339.47;;;14.13;nan
19108;BME280;9686;48.832;9.126;2023-01-08T07:13:35;97342.72;;;14.19;nan
19108;BME280;9686;48.832;9.126;2023-01-08T07:16:07;97340.38;;;14.12;nan
19108;BME280;9686;48.832;9.126;2023-01-08T07:18:34;97340.53;;;13.81;nan
19108;BME280;9686;48.832;9.126;2023-01-08T07:21:03;97336.59;;;13.94;nan
19108;BME280;9686;48.832;9.126;2023-01-08T07:23:29;97342.25;;;13.82;nan
19108;BME280;9686;48.832;9.126;2023-01-08T07:25:59;97341.44;;;14.06;nan
19108;BME280;9686;48.832;9.126;2023-01-08T07:28:24;97341.13;;;13.89;nan
19108;BME280;9686;48.832;9.126;2023-01-08T07:30:49;97345.44;;;14.16;nan
19108;BME280;9686;48.832;9.126;2023-01-08T07:33:14;97350.38;;;14.26;nan
19108;BME280;9686;48.832;9.126;2023-01-08T07:35:40;97354.19;;;13.91;nan
19108;BME280;9686;48.832;9.126;2023-01-08T07:38:05;97357.94;;;13.55;nan
19108;BME280;9686;48.832;9.126;2023-01-08T07:40:30;97354.75;;;13.18;nan
19108;BME280;9686;48.832;9.126;2023-01-08T07:43:00;97359.81;;;13.22;nan
19108;BME280;9686;48.832;9.126;2023-01-08T07:45:29;97352.13;;;13.46;nan
19108;BME280;9686;48.832;9.126;2023-01-08T07:47:58;97344.66;;;13.34;nan
19108;BME280;9686;48.832;9.126;2023-01-08T07:50:24;97352.47;;;13.35;nan
19108;BME280;9686;48.832;9.126;2023-01-08T07:52:50;97356.25;;;12.95;nan
19108;BME280;9686;48.832;9.126;2023-01-08T07:55:15;97359.81;;;12.93;nan
19108;BME280;9686;48.832;9.126;2023-01-08T07:57:40;97352.63;;;13.01;nan
19108;BME280;9686;48.832;9.126;2023-01-08T08:00:06;97348.16;;;13.34;nan
19108;BME280;9686;48.832;9.126;2023-01-08T08:02:32;97346.38;;;13.63;nan
19108;BME280;9686;48.832;9.126;2023-01-08T08:04:57;97363.09;;;13.00;nan
19108;BME280;9686;48.832;9.126;2023-01-08T08:07:23;97351.88;;;13.25;nan
19108;BME280;9686;48.832;9.126;2023-01-08T08:09:48;97347.94;;;13.11;nan
19108;BME280;9686;48.832;9.126;2023-01-08T08:12:13;97341.31;;;13.30;nan
19108;BME280;9686;48.832;9.126;2023-01-08T08:14:39;97344.66;;;13.34;nan
19108;BME280;9686;48.832;9.126;2023-01-08T08:17:04;97350.44;;;13.71;nan
19108;BME280;9686;48.832;9.126;2023-01-08T08:19:30;97349.56;;;13.44;nan
19108;BME280;9686;48.832;9.126;2023-01-08T08:21:55;97350.22;;;13.23;nan
19108;BME280;9686;48.832;9.126;2023-01-08T08:24:20;97348.44;;;13.51;nan
19108;BME280;9686;48.832;9.126;2023-01-08T08:26:45;97349.50;;;13.18;nan
19108;BME280;9686;48.832;9.126;2023-01-08T08:29:11;97344.03;;;12.96;nan
19108;BME280;9686;48.832;9.126;2023-01-08T08:31:36;97340.06;;;13.12;nan
19108;BME280;9686;48.832;9.126;2023-01-08T08:34:02;97343.00;;;13.31;nan
19108;BME280;9686;48.832;9.126;2023-01-08T08:36:28;97339.13;;;13.43;nan
19108;BME280;9686;48.832;9.126;2023-01-08T08:38:53;97345.72;;;12.97;nan
19108;BME280;9686;48.832;9.126;2023-01-08T08:41:18;97338.78;;;13.25;nan
19108;BME280;9686;48.832;9.126;2023-01-08T08:43:44;97332.63;;;13.28;nan
19108;BME280;9686;48.832;9.126;2023-01-08T08:46:09;97326.22;;;13.09;nan
19108;BME280;9686;48.832;9.126;2023-01-08T08:48:34;97337.22;;;13.20;nan
19108;BME280;9686;48.832;9.126;2023-01-08T08:51:00;97333.81;;;13.18;nan
19108;BME280;9686;48.832;9.126;2023-01-08T08:53:25;97329.38;;;13.48;nan
19108;BME280;9686;48.832;9.126;2023-01-08T08:55:50;97324.78;;;13.28;nan
19108;BME280;9686;48.832;9.126;2023-01-08T08:58:15;97324.28;;;13.43;nan
19108;BME280;9686;48.832;9.126;2023-01-08T09:00:42;97315.47;;;13.46;nan
19108;BME280;9686;48.832;9.126;2023-01-08T09:03:14;97314.03;;;13.64;nan
19108;BME280;9686;48.832;9.126;2023-01-08T09:05:40;97322.88;;;13.33;nan
19108;BME280;9686;48.832;9.126;2023-01-08T09:08:07;97323.59;;;13.38;nan
19108;BME280;9686;48.832;9.126;2023-01-08T09:10:33;97322.44;;;13.19;nan
19108;BME280;9686;48.832;9.126;2023-01-08T09:12:58;97320.66;;;13.47;nan
19108;BME280;9686;48.832;9.126;2023-01-08T09:15:23;97327.25;;;13.61;nan
19108;BME280;9686;48.832;9.126;2023-01-08T09:17:53;97317.81;;;13.81;nan
19108;BME280;9686;48.832;9.126;2023-01-08T09:20:18;97313.44;;;13.82;nan
19108;BME280;9686;48.832;9.126;2023-01-08T09:22:44;97321.63;;;13.71;nan
19108;BME280;9686;48.832;9.126;2023-01-08T09:25:09;97318.75;;;13.52;nan
19108;BME280;9686;48.832;9.126;2023-01-08T09:27:34;97328.09;;;13.87;nan
19108;BME280;9686;48.832;9.126;2023-01-08T09:30:00;97321.94;;;13.88;nan
19108;BME280;9686;48.832;9.126;2023-01-08T09:32:25;97326.13;;;13.68;nan
19108;BME280;9686;48.832;9.126;2023-01-08T09:34:50;97327.19;;;13.88;nan
19108;BME280;9686;48.832;9.126;2023-01-08T09:37:15;97330.97;;;14.06;nan
19108;BME280;9686;48.832;9.126;2023-01-08T09:39:41;97326.88;;;13.98;nan
19108;BME280;9686;48.832;9.126;2023-01-08T09:42:06;97336.53;;;13.96;nan
19108;BME280;9686;48.832;9.126;2023-01-08T09:44:39;97335.41;;;14.03;nan
19108;BME280;9686;48.832;9.126;2023-01-08T09:47:20;97323.38;;;13.97;nan
19108;BME280;9686;48.832;9.126;2023-01-08T09:49:48;97337.66;;;13.88;nan
19108;BME280;9686;48.832;9.126;2023-01-08T09:52:14;97332.00;;;14.01;nan
19108;BME280;9686;48.832;9.126;2023-01-08T09:54:40;97323.94;;;14.07;nan
19108;BME280;9686;48.832;9.126;2023-01-08T09:57:11;97329.47;;;13.98;nan
19108;BME280;9686;48.832;9.126;2023-01-08T09:59:37;97330.97;;;14.06;nan
19108;BME280;9686;48.832;9.126;2023-01-08T10:02:03;97325.03;;;14.00;nan
19108;BME280;9686;48.832;9.126;2023-01-08T10:04:28;97333.19;;;14.17;nan
19108;BME280;9686;48.832;9.126;2023-01-08T10:07:04;97330.06;;;14.32;nan
19108;BME280;9686;48.832;9.126;2023-01-08T10:09:31;97337.66;;;14.40;nan
19108;BME280;9686;48.832;9.126;2023-01-08T10:11:59;97337.69;;;14.13;nan
19108;BME280;9686;48.832;9.126;2023-01-08T10:14:36;97332.56;;;14.10;nan
19108;BME280;9686;48.832;9.126;2023-01-08T10:17:29;97333.31;;;14.14;nan
19108;BME280;9686;48.832;9.126;2023-01-08T10:19:58;97331.94;;;14.02;nan
19108;BME280;9686;48.832;9.126;2023-01-08T10:22:26;97323.47;;;14.20;nan
19108;BME280;9686;48.832;9.126;2023-01-08T10:25:05;97329.66;;;14.18;nan
19108;BME280;9686;48.832;9.126;2023-01-08T10:27:38;97325.94;;;13.99;nan
19108;BME280;9686;48.832;9.126;2023-01-08T10:30:14;97332.13;;;14.23;nan
19108;BME280;9686;48.832;9.126;2023-01-08T10:32:46;97310.94;;;14.04;nan
19108;BME280;9686;48.832;9.126;2023-01-08T10:35:16;97308.53;;;14.23;nan
19108;BME280;9686;48.832;9.126;2023-01-08T10:37:42;97314.22;;;14.10;nan
19108;BME280;9686;48.832;9.126;2023-01-08T10:40:27;97294.41;;;14.02;nan
19108;BME280;9686;48.832;9.126;2023-01-08T10:42:55;97287.56;;;14.23;nan
19108;BME280;9686;48.832;9.126;2023-01-08T10:45:22;97287.09;;;14.36;nan
19108;BME280;9686;48.832;9.126;2023-01-08T10:47:51;97291.47;;;14.11;nan
19108;BME280;9686;48.832;9.126;2023-01-08T10:50:22;97288.91;;;14.34;nan
19108;BME280;9686;48.832;9.126;2023-01-08T10:53:24;97289.28;;;13.99;nan
19108;BME280;9686;48.832;9.126;2023-01-08T10:56:01;97292.22;;;13.89;nan
19108;BME280;9686;48.832;9.126;2023-01-08T10:58:28;97288.31;;;14.01;nan
19108;BME280;9686;48.832;9.126;2023-01-08T11:00:54;97286.22;;;13.86;nan
19108;BME280;9686;48.832;9.126;2023-01-08T11:03:26;97287.84;;;13.90;nan
19108;BME280;9686;48.832;9.126;2023-01-08T11:05:53;97285.75;;;14.25;nan
19108;BME280;9686;48.832;9.126;2023-01-08T11:08:20;97285.50;;;14.31;nan
19108;BME280;9686;48.832;9.126;2023-01-08T11:10:59;97276.84;;;14.29;nan
19108;BME280;9686;48.832;9.126;2023-01-08T11:13:26;97273.59;;;14.47;nan
19108;BME280;9686;48.832;9.126;2023-01-08T11:16:02;97269.91;;;14.53;nan
19108;BME280;9686;48.832;9.126;2023-01-08T11:18:28;97272.94;;;14.40;nan
19108;BME280;9686;48.832;9.126;2023-01-08T11:21:07;97255.53;;;14.63;nan
19108;BME280;9686;48.832;9.126;2023-01-08T11:23:33;97249.41;;;14.39;nan
19108;BME280;9686;48.832;9.126;2023-01-08T11:26:12;97252.81;;;14.66;nan
19108;BME280;9686;48.832;9.126;2023-01-08T11:28:55;97248.78;;;14.79;nan
19108;BME280;9686;48.832;9.126;2023-01-08T11:31:43;97246.91;;;14.82;nan
19108;BME280;9686;48.832;9.126;2023-01-08T11:36:54;97239.94;;;14.81;nan
19108;BME280;9686;48.832;9.126;2023-01-08T11:39:21;97239.88;;;14.83;nan
19108;BME280;9686;48.832;9.126;2023-01-08T11:42:13;97231.00;;;14.40;nan
19108;BME280;9686;48.832;9.126;2023-01-08T11:53:23;97206.66;;;14.84;nan
19108;BME280;9686;48.832;9.126;2023-01-08T11:58:45;97180.03;;;15.15;nan
19108;BME280;9686;48.832;9.126;2023-01-08T12:09:50;97184.16;;;14.55;nan
19108;BME280;9686;48.832;9.126;2023-01-08T12:12:27;97179.38;;;14.66;nan
19108;BME280;9686;48.832;9.126;2023-01-08T12:15:10;97173.56;;;14.58;nan
19108;BME280;9686;48.832;9.126;2023-01-08T12:20:44;97155.19;;;14.79;nan
19108;BME280;9686;48.832;9.126;2023-01-08T12:33:36;97154.78;;;14.68;nan
19108;BME280;9686;48.832;9.126;2023-01-08T12:36:08;97154.44;;;14.54;nan
19108;BME280;9686;48.832;9.126;2023-01-08T12:38:42;97151.38;;;14.88;nan
19108;BME280;9686;48.832;9.126;2023-01-08T12:41:12;97162.09;;;14.82;nan
19108;BME280;9686;48.832;9.126;2023-01-08T12:43:52;97155.25;;;14.78;nan
19108;BME280;9686;48.832;9.126;2023-01-08T12:46:21;97152.34;;;14.86;nan
19108;BME280;9686;48.832;9.126;2023-01-08T12:48:49;97154.66;;;14.71;nan
19108;BME280;9686;48.832;9.126;2023-01-08T12:51:27;97155.81;;;14.86;nan
19108;BME280;9686;48.832;9.126;2023-01-08T12:56:45;97157.50;;;15.09;nan
19108;BME280;9686;48.832;9.126;2023-01-08T13:04:48;97150.53;;;14.88;nan
19108;BME280;9686;48.832;9.126;2023-01-08T13:07:20;97147.28;;;14.59;nan
19108;BME280;9686;48.832;9.126;2023-01-08T13:10:01;97137.22;;;14.70;nan
19108;BME280;9686;48.832;9.126;2023-01-08T13:12:35;97130.31;;;14.46;nan
19108;BME280;9686;48.832;9.126;2023-01-08T13:15:02;97134.75;;;14.44;nan
19108;BME280;9686;48.832;9.126;2023-01-08T13:17:30;97125.66;;;14.74;nan
19108;BME280;9686;48.832;9.126;2023-01-08T13:20:04;97132.16;;;14.66;nan
19108;BME280;9686;48.832;9.126;2023-01-08T13:22:33;97126.72;;;14.70;nan
19108;BME280;9686;48.832;9.126;2023-01-08T13:25:49;97128.59;;;14.89;nan
19108;BME280;9686;48.832;9.126;2023-01-08T13:27:56;97132.44;;;14.80;nan
19108;BME280;9686;48.832;9.126;2023-01-08T13:30:41;97117.84;;;14.51;nan
19108;BME280;9686;48.832;9.126;2023-01-08T13:33:24;97105.59;;;14.73;nan
19108;BME280;9686;48.832;9.126;2023-01-08T13:35:51;97116.66;;;14.60;nan
19108;BME280;9686;48.832;9.126;2023-01-08T13:38:19;97113.31;;;14.33;nan
19108;BME280;9686;48.832;9.126;2023-01-08T13:43:35;97099.31;;;14.77;nan
19108;BME280;9686;48.832;9.126;2023-01-08T13:48:36;97073.22;;;14.53;nan
19108;BME280;9686;48.832;9.126;2023-01-08T13:51:03;97081.00;;;14.76;nan
19108;BME280;9686;48.832;9.126;2023-01-08T13:53:28;97076.88;;;14.70;nan
19108;BME280;9686;48.832;9.126;2023-01-08T13:56:06;97079.63;;;15.09;nan
19108;BME280;9686;48.832;9.126;2023-01-08T13:58:37;97087.28;;;15.34;nan
19108;BME280;9686;48.832;9.126;2023-01-08T14:01:05;97087.81;;;15.22;nan
19108;BME280;9686;48.832;9.126;2023-01-08T14:03:34;97080.59;;;15.27;nan
19108;BME280;9686;48.832;9.126;2023-01-08T14:08:32;97057.38;;;15.38;nan
19108;BME280;9686;48.832;9.126;2023-01-08T14:10:57;97069.44;;;15.42;nan
19108;BME280;9686;48.832;9.126;2023-01-08T14:13:26;97070.88;;;15.50;nan
19108;BME280;9686;48.832;9.126;2023-01-08T14:15:59;97069.28;;;16.05;nan
19108;BME280;9686;48.832;9.126;2023-01-08T14:18:26;97061.75;;;15.97;nan
19108;BME280;9686;48.832;9.126;2023-01-08T14:20:53;97054.41;;;15.85;nan
19108;BME280;9686;48.832;9.126;2023-01-08T14:23:32;97070.03;;;15.69;nan
19108;BME280;9686;48.832;9.126;2023-01-08T14:26:05;97063.81;;;15.91;nan
19108;BME280;9686;48.832;9.126;2023-01-08T14:28:33;97065.53;;;15.92;nan
19108;BME280;9686;48.832;9.126;2023-01-08T14:30:58;97069.97;;;15.71;nan
19108;BME280;9686;48.832;9.126;2023-01-08T14:33:35;97062.94;;;15.71;nan
19108;BME280;9686;48.832;9.126;2023-01-08T14:36:01;97066.53;;;15.49;nan
19108;BME280;9686;48.832;9.126;2023-01-08T14:38:28;97068.88;;;15.36;nan
19108;BME280;9686;48.832;9.126;2023-01-08T14:41:00;97063.28;;;15.43;nan